createdAt,value
2022-08-05T00:00:20.609Z,28.36
2022-08-05T00:01:28.505Z,28.31
2022-08-05T00:02:20.692Z,28.31
2022-08-05T00:03:20.627Z,28.25
2022-08-05T00:04:20.637Z,28.27
2022-08-05T00:06:03.030Z,28.22
2022-08-05T00:06:30.667Z,28.19
2022-08-05T00:07:27.510Z,28.18
2022-08-05T00:08:34.958Z,28.18
2022-08-05T00:09:20.660Z,28.14
2022-08-05T00:10:20.673Z,28.07
2022-08-05T00:11:30.230Z,28.07
2022-08-05T00:12:20.673Z,28.15
2022-08-05T00:13:20.682Z,28.14
2022-08-05T00:14:20.687Z,28.17
2022-08-05T00:15:58.145Z,28.22
2022-08-05T00:16:36.174Z,28.24
2022-08-05T00:17:20.803Z,28.27
2022-08-05T00:18:21.567Z,28.27
2022-08-05T00:19:22.282Z,28.30
2022-08-05T00:20:20.719Z,28.29
2022-08-05T00:21:20.725Z,28.39
2022-08-05T00:22:20.725Z,28.31
2022-08-05T00:23:31.087Z,28.33
2022-08-05T00:24:24.917Z,28.30
2022-08-05T00:25:20.748Z,28.40
2022-08-05T00:26:20.750Z,28.49
2022-08-05T00:27:20.760Z,28.40
2022-08-05T00:28:29.452Z,28.44
2022-08-05T00:29:22.592Z,28.41
2022-08-05T00:30:20.774Z,28.41
2022-08-05T00:31:53.571Z,28.40
2022-08-05T00:32:20.798Z,28.46
2022-08-05T00:34:53.479Z,28.41
2022-08-05T00:34:55.858Z,28.51
2022-08-05T00:35:20.796Z,28.44
2022-08-05T00:37:11.270Z,28.48
2022-08-05T00:37:20.811Z,28.48
2022-08-05T00:38:28.788Z,28.37
2022-08-05T00:39:20.848Z,28.51
2022-08-05T00:40:28.082Z,28.49
2022-08-05T00:41:20.826Z,28.49
2022-08-05T00:42:31.521Z,28.46
2022-08-05T00:43:20.839Z,28.49
2022-08-05T00:44:20.993Z,28.39
2022-08-05T00:45:38.155Z,28.41
2022-08-05T00:46:20.854Z,28.39
2022-08-05T00:47:20.857Z,28.52
2022-08-05T00:48:27.549Z,28.49
2022-08-05T00:49:20.868Z,28.49
2022-08-05T00:50:21.147Z,28.48
2022-08-05T00:51:50.559Z,28.46
2022-08-05T00:52:28.287Z,28.49
2022-08-05T00:53:59.974Z,28.48
2022-08-05T00:54:20.900Z,28.51
2022-08-05T00:55:20.899Z,28.49
2022-08-05T00:56:22.817Z,28.48
2022-08-05T00:57:21.377Z,28.48
2022-08-05T00:58:20.914Z,28.49
2022-08-05T00:59:20.918Z,28.48
2022-08-05T01:00:21.953Z,28.46
2022-08-05T01:01:42.927Z,28.44
2022-08-05T01:02:20.935Z,28.51
2022-08-05T01:03:22.643Z,28.48
2022-08-05T01:04:26.727Z,28.49
2022-08-05T01:05:20.949Z,28.52
2022-08-05T01:06:20.953Z,28.51
2022-08-05T01:07:20.958Z,28.49
2022-08-05T01:08:41.409Z,28.44
2022-08-05T01:09:20.969Z,28.41
2022-08-05T01:10:20.973Z,28.43
2022-08-05T01:11:22.709Z,28.43
2022-08-05T01:12:20.991Z,28.41
2022-08-05T01:13:27.249Z,28.44
2022-08-05T01:14:28.123Z,28.39
2022-08-05T01:15:36.275Z,28.37
2022-08-05T01:16:26.116Z,28.33
2022-08-05T01:17:21.227Z,28.41
2022-08-05T01:18:21.015Z,28.44
2022-08-05T01:19:21.013Z,28.39
2022-08-05T01:20:22.323Z,28.40
2022-08-05T01:21:22.802Z,28.43
2022-08-05T01:22:24.060Z,28.37
2022-08-05T01:23:23.313Z,28.34
2022-08-05T01:24:21.045Z,28.29
2022-08-05T01:25:21.047Z,28.21
2022-08-05T01:26:21.055Z,28.21
2022-08-05T01:27:24.351Z,28.12
2022-08-05T01:28:21.064Z,28.12
2022-08-05T01:29:23.203Z,28.02
2022-08-05T01:30:21.071Z,28.06
2022-08-05T01:31:21.073Z,28.02
2022-08-05T01:32:21.087Z,27.88
2022-08-05T01:33:21.085Z,27.85
2022-08-05T01:34:21.089Z,27.72
2022-08-05T01:35:50.607Z,27.75
2022-08-05T01:36:21.192Z,27.75
2022-08-05T01:37:25.123Z,27.60
2022-08-05T01:38:27.006Z,27.60
2022-08-05T01:39:45.601Z,27.59
2022-08-05T01:40:21.131Z,27.55
2022-08-05T01:41:21.697Z,27.51
2022-08-05T01:42:21.130Z,27.55
2022-08-05T01:43:22.298Z,27.51
2022-08-05T01:44:21.140Z,27.54
2022-08-05T01:45:21.145Z,27.46
2022-08-05T01:46:43.031Z,27.46
2022-08-05T01:47:21.563Z,27.37
2022-08-05T01:48:21.158Z,27.34
2022-08-05T01:49:24.299Z,27.40
2022-08-05T01:50:28.663Z,27.41
2022-08-05T01:51:21.174Z,27.32
2022-08-05T01:52:21.180Z,27.24
2022-08-05T01:53:54.381Z,27.27
2022-08-05T01:54:25.707Z,27.31
2022-08-05T01:55:21.190Z,27.27
2022-08-05T01:58:10.982Z,27.25
2022-08-05T01:58:11.868Z,27.17
2022-08-05T01:58:40.268Z,27.19
2022-08-05T01:59:21.211Z,27.19
2022-08-05T02:00:21.218Z,27.09
2022-08-05T02:01:24.553Z,27.06
2022-08-05T02:02:28.521Z,27.07
2022-08-05T02:03:24.350Z,27.02
2022-08-05T02:04:21.241Z,26.92
2022-08-05T02:05:23.338Z,26.89
2022-08-05T02:06:37.707Z,26.91
2022-08-05T02:07:22.249Z,26.91
2022-08-05T02:08:30.877Z,26.89
2022-08-05T02:09:21.258Z,26.76
2022-08-05T02:10:23.674Z,26.77
2022-08-05T02:11:23.863Z,26.82
2022-08-05T02:12:21.274Z,26.77
2022-08-05T02:13:21.968Z,26.76
2022-08-05T02:14:21.284Z,26.80
2022-08-05T02:15:21.290Z,26.70
2022-08-05T02:16:22.004Z,26.70
2022-08-05T02:18:28.598Z,26.60
2022-08-05T02:18:30.926Z,26.65
2022-08-05T02:19:21.302Z,26.63
2022-08-05T02:20:21.307Z,26.58
2022-08-05T02:21:21.313Z,26.63
2022-08-05T02:22:26.775Z,26.62
2022-08-05T02:23:21.320Z,26.62
2022-08-05T02:24:23.448Z,26.62
2022-08-05T02:25:21.721Z,26.58
2022-08-05T02:26:21.782Z,26.54
2022-08-05T02:27:21.738Z,26.47
2022-08-05T02:28:28.864Z,26.51
2022-08-05T02:29:26.078Z,26.57
2022-08-05T02:30:21.355Z,26.48
2022-08-05T02:31:21.453Z,26.45
2022-08-05T02:32:29.194Z,26.47
2022-08-05T02:33:24.478Z,26.48
2022-08-05T02:34:21.369Z,26.39
2022-08-05T02:35:27.937Z,26.48
2022-08-05T02:36:21.382Z,26.44
2022-08-05T02:37:21.777Z,26.47
2022-08-05T02:38:21.389Z,26.43
2022-08-05T02:39:21.739Z,26.50
2022-08-05T02:40:21.400Z,26.48
2022-08-05T02:41:21.402Z,26.39
2022-08-05T02:42:25.842Z,26.40
2022-08-05T02:43:21.419Z,26.45
2022-08-05T02:44:21.412Z,26.44
2022-08-05T02:45:21.422Z,26.40
2022-08-05T02:46:27.391Z,26.39
2022-08-05T02:47:21.669Z,26.39
2022-08-05T02:48:21.432Z,26.39
2022-08-05T02:49:21.912Z,26.39
2022-08-05T02:50:21.438Z,26.35
2022-08-05T02:51:28.442Z,26.33
2022-08-05T02:52:29.904Z,26.30
2022-08-05T02:53:21.450Z,26.35
2022-08-05T02:54:36.153Z,26.33
2022-08-05T02:55:54.207Z,26.26
2022-08-05T02:56:21.466Z,26.33
2022-08-05T02:58:10.072Z,26.37
2022-08-05T02:58:21.902Z,26.28
2022-08-05T02:59:21.477Z,26.29
2022-08-05T03:00:21.484Z,26.32
2022-08-05T03:01:21.558Z,26.28
2022-08-05T03:02:21.491Z,26.36
2022-08-05T03:03:23.582Z,26.30
2022-08-05T03:04:23.103Z,26.28
2022-08-05T03:05:21.817Z,26.30
2022-08-05T03:06:54.000Z,26.26
2022-08-05T03:07:40.385Z,26.30
2022-08-05T03:08:26.901Z,26.18
2022-08-05T03:09:36.370Z,26.20
2022-08-05T03:10:24.410Z,26.21
2022-08-05T03:11:55.218Z,26.26
2022-08-05T03:12:21.529Z,26.32
2022-08-05T03:13:21.533Z,26.21
2022-08-05T03:14:21.545Z,26.18
2022-08-05T03:15:21.545Z,26.20
2022-08-05T03:16:21.551Z,26.21
2022-08-05T03:17:22.031Z,26.18
2022-08-05T03:18:24.659Z,26.25
2022-08-05T03:19:34.078Z,26.13
2022-08-05T03:20:21.560Z,26.09
2022-08-05T03:21:21.566Z,26.07
2022-08-05T03:22:32.191Z,26.15
2022-08-05T03:23:24.157Z,26.09
2022-08-05T03:24:29.800Z,26.07
2022-08-05T03:25:32.402Z,26.10
2022-08-05T03:26:32.299Z,26.05
2022-08-05T03:27:22.014Z,26.07
2022-08-05T03:28:21.595Z,26.09
2022-08-05T03:29:21.597Z,26.07
2022-08-05T03:30:21.605Z,26.09
2022-08-05T03:31:57.150Z,26.09
2022-08-05T03:32:21.611Z,25.97
2022-08-05T03:33:21.855Z,26.01
2022-08-05T03:34:24.376Z,25.99
2022-08-05T03:35:21.627Z,25.98
2022-08-05T03:36:30.032Z,25.94
2022-08-05T03:37:22.585Z,26.01
2022-08-05T03:38:32.611Z,25.99
2022-08-05T03:39:27.153Z,26.01
2022-08-05T03:40:24.208Z,25.92
2022-08-05T03:41:23.671Z,25.95
2022-08-05T03:42:21.653Z,25.99
2022-08-05T03:44:09.236Z,25.99
2022-08-05T03:44:21.667Z,26.02
2022-08-05T03:45:23.389Z,25.99
2022-08-05T03:46:21.664Z,25.92
2022-08-05T03:47:21.973Z,25.98
2022-08-05T03:48:21.982Z,25.95
2022-08-05T03:49:24.261Z,25.92
2022-08-05T03:50:21.684Z,25.94
2022-08-05T03:52:36.992Z,25.94
2022-08-05T03:52:38.873Z,25.94
2022-08-05T03:55:49.827Z,25.95
2022-08-05T03:55:52.579Z,25.99
2022-08-05T03:56:03.681Z,25.97
2022-08-05T03:56:30.638Z,25.98
2022-08-05T03:57:21.708Z,25.85
2022-08-05T03:58:21.714Z,25.94
2022-08-05T03:59:21.717Z,25.91
2022-08-05T04:00:21.722Z,25.95
2022-08-05T04:01:21.768Z,25.91
2022-08-05T04:02:38.514Z,25.88
2022-08-05T04:03:28.947Z,25.85
2022-08-05T04:04:21.737Z,25.85
2022-08-05T04:05:23.089Z,25.90
2022-08-05T04:06:21.748Z,25.91
2022-08-05T04:07:22.029Z,25.90
2022-08-05T04:08:30.209Z,25.91
2022-08-05T04:09:26.313Z,25.87
2022-08-05T04:10:21.762Z,25.87
2022-08-05T04:11:21.761Z,25.90
2022-08-05T04:12:24.391Z,25.85
2022-08-05T04:13:21.772Z,25.88
2022-08-05T04:14:29.924Z,25.91
2022-08-05T04:15:24.437Z,25.92
2022-08-05T04:16:24.388Z,25.87
2022-08-05T04:17:22.117Z,25.94
2022-08-05T04:18:22.664Z,25.95
2022-08-05T04:19:21.793Z,25.97
2022-08-05T04:20:23.202Z,25.90
2022-08-05T04:22:08.747Z,25.99
2022-08-05T04:22:21.809Z,25.94
2022-08-05T04:24:05.827Z,25.95
2022-08-05T04:24:22.368Z,25.95
2022-08-05T04:25:38.488Z,25.95
2022-08-05T04:26:21.820Z,25.92
2022-08-05T04:30:55.285Z,26.02
2022-08-05T04:31:56.884Z,25.97
2022-08-05T04:32:55.293Z,25.94
2022-08-05T04:34:31.270Z,25.98
2022-08-05T04:34:57.657Z,26.01
2022-08-05T04:36:16.440Z,26.05
2022-08-05T04:36:55.305Z,26.07
2022-08-05T04:38:01.232Z,25.99
2022-08-05T04:38:55.351Z,26.06
2022-08-05T04:39:55.719Z,26.06
2022-08-05T04:40:55.321Z,26.10
2022-08-05T04:48:48.573Z,26.30
2022-08-05T04:50:06.519Z,26.28
2022-08-05T04:51:01.737Z,26.35
2022-08-05T04:51:48.583Z,26.30
2022-08-05T04:52:48.585Z,26.37
2022-08-05T04:53:48.590Z,26.43
2022-08-05T04:54:49.420Z,26.33
2022-08-05T04:56:14.783Z,26.45
2022-08-05T04:56:48.607Z,26.44
2022-08-05T04:57:51.632Z,26.43
2022-08-05T04:58:48.609Z,26.44
2022-08-05T04:59:48.614Z,26.52
2022-08-05T05:00:50.715Z,26.54
2022-08-05T05:02:05.741Z,26.58
2022-08-05T05:02:48.715Z,26.50
2022-08-05T05:03:48.632Z,26.55
2022-08-05T05:04:50.483Z,26.60
2022-08-05T05:06:39.567Z,26.60
2022-08-05T05:06:49.270Z,26.66
2022-08-05T05:07:52.915Z,26.67
2022-08-05T05:08:50.109Z,26.67
2022-08-05T05:09:48.654Z,26.76
2022-08-05T05:10:56.360Z,26.80
2022-08-05T05:11:55.447Z,26.77
2022-08-05T05:12:48.665Z,26.89
2022-08-05T05:13:48.667Z,26.89
2022-08-05T05:14:50.625Z,26.99
2022-08-05T05:15:56.481Z,27.00
2022-08-05T05:16:48.680Z,26.97
2022-08-05T05:17:56.249Z,27.06
2022-08-05T05:19:16.523Z,27.13
2022-08-05T05:19:48.692Z,27.13
2022-08-05T05:20:50.449Z,27.28
2022-08-05T05:21:48.701Z,27.22
2022-08-05T05:22:48.707Z,27.37
2022-08-05T05:24:03.782Z,27.41
2022-08-05T05:24:58.341Z,27.44
2022-08-05T05:25:48.717Z,27.41
2022-08-05T05:26:51.961Z,27.54
2022-08-05T05:27:53.810Z,27.51
2022-08-05T05:28:48.729Z,27.49
2022-08-05T05:30:03.819Z,27.55
2022-08-05T05:30:49.684Z,27.59
2022-08-05T05:31:48.741Z,27.60
2022-08-05T05:32:48.801Z,27.66
2022-08-05T05:33:59.408Z,27.70
2022-08-05T05:34:48.752Z,27.70
2022-08-05T05:35:48.756Z,27.75
2022-08-05T05:36:48.765Z,27.72
2022-08-05T05:38:00.199Z,27.69
2022-08-05T05:38:48.773Z,27.81
2022-08-05T05:39:48.819Z,27.85
2022-08-05T05:40:51.395Z,27.72
2022-08-05T05:41:54.127Z,27.92
2022-08-05T05:42:48.787Z,27.94
2022-08-05T05:43:57.246Z,27.93
2022-08-05T05:44:48.795Z,27.99
2022-08-05T05:45:48.801Z,27.94
2022-08-05T05:46:48.805Z,27.93
2022-08-05T05:48:05.745Z,27.90
2022-08-05T05:48:49.185Z,27.90
2022-08-05T05:49:52.624Z,27.96
2022-08-05T05:50:48.822Z,27.99
2022-08-05T05:51:50.657Z,28.00
2022-08-05T05:52:48.832Z,27.93
2022-08-05T05:53:57.567Z,27.99
2022-08-05T05:54:50.558Z,28.06
2022-08-05T05:55:51.927Z,28.07
2022-08-05T05:56:48.848Z,28.12
2022-08-05T05:57:52.089Z,28.02
2022-08-05T05:58:48.856Z,28.04
2022-08-05T05:59:49.139Z,28.09
2022-08-05T06:00:48.879Z,28.15
2022-08-05T06:01:57.817Z,28.27
2022-08-05T06:02:48.879Z,28.27
2022-08-05T06:04:01.078Z,28.29
2022-08-05T06:04:49.275Z,28.29
2022-08-05T06:05:54.212Z,28.33
2022-08-05T06:06:49.183Z,28.34
2022-08-05T06:08:01.305Z,28.41
2022-08-05T06:08:49.169Z,28.37
2022-08-05T06:09:59.935Z,28.43
2022-08-05T06:10:49.199Z,28.37
2022-08-05T06:11:59.495Z,28.41
2022-08-05T06:12:48.924Z,28.51
2022-08-05T06:13:53.711Z,28.54
2022-08-05T06:14:48.931Z,28.59
2022-08-05T06:16:30.230Z,28.55
2022-08-05T06:16:48.940Z,28.55
2022-08-05T06:17:52.659Z,28.59
2022-08-05T06:18:48.951Z,28.68
2022-08-05T06:19:56.577Z,28.55
2022-08-05T06:20:48.958Z,28.62
2022-08-05T06:21:49.881Z,28.61
2022-08-05T06:22:48.973Z,28.67
2022-08-05T06:23:49.770Z,28.70
2022-08-05T06:24:48.979Z,28.77
2022-08-05T06:26:12.890Z,28.78
2022-08-05T06:26:52.274Z,28.85
2022-08-05T06:28:11.848Z,28.83
2022-08-05T06:28:48.999Z,28.93
2022-08-05T06:30:03.971Z,28.90
2022-08-05T06:30:49.155Z,29.02
2022-08-05T06:31:49.011Z,28.98
2022-08-05T06:32:50.693Z,29.09
2022-08-05T06:34:06.035Z,29.08
2022-08-05T06:34:53.472Z,28.98
2022-08-05T06:36:03.669Z,29.00
2022-08-05T06:36:58.067Z,29.11
2022-08-05T06:37:57.286Z,29.09
2022-08-05T06:38:49.048Z,29.09
2022-08-05T06:39:49.112Z,29.12
2022-08-05T06:40:49.376Z,29.02
2022-08-05T06:41:49.061Z,29.11
2022-08-05T06:42:51.644Z,29.02
2022-08-05T06:43:58.092Z,29.06
2022-08-05T06:44:49.243Z,29.14
2022-08-05T06:46:04.044Z,29.21
2022-08-05T06:46:50.597Z,29.28
2022-08-05T06:48:46.945Z,29.27
2022-08-05T06:48:55.521Z,29.27
2022-08-05T06:50:00.776Z,29.33
2022-08-05T06:50:49.993Z,29.31
2022-08-05T06:51:49.112Z,29.43
2022-08-05T06:52:58.729Z,29.55
2022-08-05T06:53:53.633Z,29.58
2022-08-05T06:54:53.397Z,29.60
2022-08-05T06:55:49.131Z,29.70
2022-08-05T06:56:54.896Z,29.70
2022-08-05T06:57:57.131Z,29.82
2022-08-05T06:58:49.150Z,29.90
2022-08-05T06:59:57.956Z,30.04
2022-08-05T07:00:49.200Z,30.11
2022-08-05T07:01:52.777Z,30.10
2022-08-05T07:02:53.448Z,30.19
2022-08-05T07:03:49.174Z,30.26
2022-08-05T07:04:49.180Z,30.24
2022-08-05T07:05:49.185Z,30.37
2022-08-05T07:06:50.485Z,30.53
2022-08-05T07:07:49.195Z,30.57
2022-08-05T07:08:51.893Z,30.61
2022-08-05T07:09:49.204Z,30.60
2022-08-05T07:10:53.352Z,30.62
2022-08-05T07:11:51.461Z,30.53
2022-08-05T07:12:49.368Z,30.61
2022-08-05T07:13:59.302Z,30.72
2022-08-05T07:14:49.238Z,30.79
2022-08-05T07:16:00.997Z,30.83
2022-08-05T07:17:59.043Z,31.04
2022-08-05T07:18:02.350Z,30.98
2022-08-05T07:18:49.257Z,31.12
2022-08-05T07:20:49.271Z,31.26
2022-08-05T07:22:00.323Z,31.43
2022-08-05T07:22:49.283Z,31.54
2022-08-05T07:23:49.941Z,31.65
2022-08-05T07:24:52.485Z,31.76
2022-08-05T07:25:54.946Z,31.91
2022-08-05T07:26:49.302Z,31.95
2022-08-05T07:27:57.949Z,31.93
2022-08-05T07:28:49.321Z,32.01
2022-08-05T07:30:24.440Z,32.13
2022-08-05T07:30:52.724Z,32.22
2022-08-05T07:31:54.558Z,32.26
2022-08-05T07:32:50.956Z,32.29
2022-08-05T07:33:49.350Z,32.37
2022-08-05T07:34:49.351Z,32.41
2022-08-05T07:36:05.023Z,32.57
2022-08-05T07:36:49.372Z,32.74
2022-08-05T07:37:49.379Z,32.88
2022-08-05T07:38:49.381Z,33.09
2022-08-05T07:40:04.113Z,33.42
2022-08-05T07:40:49.440Z,33.93
2022-08-05T07:42:14.383Z,34.53
2022-08-05T07:42:49.407Z,34.80
2022-08-05T07:43:49.413Z,34.72
2022-08-05T07:44:49.422Z,34.88
2022-08-05T07:45:57.193Z,34.82
2022-08-05T07:46:50.288Z,34.88
2022-08-05T07:47:49.448Z,34.88
2022-08-05T07:49:03.350Z,34.58
2022-08-05T07:49:54.370Z,34.56
2022-08-05T07:50:49.469Z,34.39
2022-08-05T07:51:53.306Z,34.34
2022-08-05T07:52:49.488Z,34.30
2022-08-05T07:53:50.612Z,34.16
2022-08-05T07:54:49.503Z,34.09
2022-08-05T07:56:05.647Z,33.90
2022-08-05T07:57:01.931Z,33.86
2022-08-05T07:57:55.229Z,33.93
2022-08-05T07:58:54.798Z,33.94
2022-08-05T07:59:49.544Z,33.95
2022-08-05T08:00:49.558Z,33.94
2022-08-05T08:01:52.212Z,34.02
2022-08-05T08:03:14.190Z,34.25
2022-08-05T08:03:51.300Z,34.75
2022-08-05T08:04:49.894Z,34.52
2022-08-05T08:05:50.020Z,34.54
2022-08-05T08:06:49.601Z,34.50
2022-08-05T08:07:59.745Z,34.46
2022-08-05T08:08:49.621Z,34.30
2022-08-05T08:09:49.630Z,34.10
2022-08-05T08:10:49.637Z,33.86
2022-08-05T08:11:59.009Z,33.79
2022-08-05T08:12:49.959Z,33.68
2022-08-05T08:14:00.646Z,33.51
2022-08-05T08:14:49.677Z,33.49
2022-08-05T08:16:34.425Z,33.32
2022-08-05T08:16:51.407Z,33.14
2022-08-05T08:17:52.688Z,33.28
2022-08-05T08:18:50.136Z,33.11
2022-08-05T08:20:22.334Z,32.97
2022-08-05T08:21:03.019Z,32.87
2022-08-05T08:21:49.739Z,32.81
2022-08-05T08:22:49.746Z,32.74
2022-08-05T08:24:01.501Z,32.55
2022-08-05T08:24:51.376Z,32.45
2022-08-05T08:25:59.269Z,32.28
2022-08-05T08:26:49.785Z,32.23
2022-08-05T08:27:51.428Z,32.26
2022-08-05T08:28:59.095Z,32.07
2022-08-05T08:30:05.306Z,32.18
2022-08-05T08:30:50.250Z,32.14
2022-08-05T08:31:49.833Z,32.15
2022-08-05T08:32:49.841Z,32.18
2022-08-05T08:33:51.580Z,32.30
2022-08-05T08:34:49.855Z,32.41
2022-08-05T08:35:52.817Z,32.43
2022-08-05T08:36:54.717Z,32.77
2022-08-05T08:37:54.389Z,33.14
2022-08-05T08:38:53.204Z,33.44
2022-08-05T08:39:49.948Z,33.38
2022-08-05T08:40:51.647Z,33.72
2022-08-05T08:41:52.562Z,33.75
2022-08-05T08:42:52.406Z,33.76
2022-08-05T08:45:18.772Z,33.59
2022-08-05T08:45:19.601Z,33.69
2022-08-05T08:45:49.956Z,33.38
2022-08-05T08:46:49.968Z,33.19
2022-08-05T08:48:10.548Z,33.14
2022-08-05T08:49:06.238Z,32.94
2022-08-05T08:50:22.471Z,32.79
2022-08-05T08:51:03.665Z,32.66
2022-08-05T08:52:05.921Z,32.43
2022-08-05T08:52:52.811Z,32.29
2022-08-05T08:53:50.031Z,32.03
2022-08-05T08:54:50.044Z,31.99
2022-08-05T08:56:04.215Z,31.81
2022-08-05T08:56:50.073Z,31.76
2022-08-05T08:57:57.936Z,31.63
2022-08-05T08:58:50.602Z,31.46
2022-08-05T08:59:50.086Z,31.53
2022-08-05T09:00:50.177Z,31.53
2022-08-05T09:01:57.445Z,31.50
2022-08-05T09:02:50.111Z,31.46
2022-08-05T09:03:54.362Z,31.43
2022-08-05T09:05:16.732Z,31.36
2022-08-05T09:06:09.260Z,31.25
2022-08-05T09:06:50.149Z,31.31
2022-08-05T09:07:57.093Z,31.19
2022-08-05T09:08:50.164Z,31.10
2022-08-05T09:09:50.275Z,30.91
2022-08-05T09:10:50.178Z,30.79
2022-08-05T09:11:50.853Z,30.73
2022-08-05T09:12:50.803Z,30.70
2022-08-05T09:14:09.702Z,30.69
2022-08-05T09:14:58.095Z,30.58
2022-08-05T09:15:50.227Z,30.64
2022-08-05T09:16:50.230Z,30.60
2022-08-05T09:17:50.243Z,30.64
2022-08-05T09:18:50.252Z,30.61
2022-08-05T09:20:01.317Z,30.55
2022-08-05T09:20:50.265Z,30.46
2022-08-05T09:22:23.236Z,30.45
2022-08-05T09:22:51.853Z,30.38
2022-08-05T09:23:50.289Z,30.23
2022-08-05T09:24:50.292Z,30.15
2022-08-05T09:26:02.229Z,30.16
2022-08-05T09:26:51.772Z,30.11
2022-08-05T09:28:04.212Z,30.23
2022-08-05T09:28:50.333Z,30.22
2022-08-05T09:29:50.350Z,30.20
2022-08-05T09:30:50.348Z,30.34
2022-08-05T09:32:45.976Z,30.20
2022-08-05T09:32:51.749Z,30.26
2022-08-05T09:33:50.816Z,30.24
2022-08-05T09:34:50.375Z,30.29
2022-08-05T09:35:50.377Z,30.27
2022-08-05T09:36:55.681Z,30.34
2022-08-05T09:38:17.266Z,30.42
2022-08-05T09:38:50.400Z,30.17
2022-08-05T09:39:52.363Z,30.13
2022-08-05T09:40:52.639Z,30.07
2022-08-05T09:41:56.291Z,30.15
2022-08-05T09:42:50.429Z,30.08
2022-08-05T09:43:50.437Z,30.19
2022-08-05T09:44:50.796Z,30.17
2022-08-05T09:46:07.312Z,30.08
2022-08-05T09:46:53.704Z,30.16
2022-08-05T09:47:56.081Z,30.17
2022-08-05T09:49:07.344Z,30.22
2022-08-05T09:50:00.762Z,30.22
2022-08-05T09:50:50.489Z,30.23
2022-08-05T09:51:50.520Z,30.24
2022-08-05T09:52:52.944Z,30.34
2022-08-05T09:53:53.397Z,30.45
2022-08-05T09:54:50.515Z,30.58
2022-08-05T09:55:57.335Z,30.53
2022-08-05T09:56:52.384Z,30.53
2022-08-05T09:57:54.716Z,30.57
2022-08-05T09:58:50.543Z,30.53
2022-08-05T09:59:50.552Z,30.49
2022-08-05T10:00:50.558Z,30.35
2022-08-05T10:01:57.850Z,30.20
2022-08-05T10:02:50.617Z,30.16
2022-08-05T10:03:59.139Z,30.02
2022-08-05T10:04:50.587Z,29.92
2022-08-05T10:05:50.593Z,29.79
2022-08-05T10:06:58.872Z,29.83
2022-08-05T10:08:35.778Z,29.76
2022-08-05T10:08:53.843Z,29.74
2022-08-05T10:09:50.627Z,29.74
2022-08-05T10:10:54.318Z,29.68
2022-08-05T10:11:50.642Z,29.71
2022-08-05T10:12:50.677Z,29.65
2022-08-05T10:13:54.599Z,29.63
2022-08-05T10:14:50.656Z,29.70
2022-08-05T10:15:50.664Z,29.58
2022-08-05T10:16:52.400Z,29.52
2022-08-05T10:17:56.564Z,29.43
2022-08-05T10:18:50.685Z,29.43
2022-08-05T10:20:03.920Z,29.34
2022-08-05T10:20:50.701Z,29.31
2022-08-05T10:21:50.708Z,29.21
2022-08-05T10:22:51.211Z,29.18
2022-08-05T10:24:00.074Z,29.18
2022-08-05T10:24:50.724Z,29.27
2022-08-05T10:25:50.732Z,29.15
2022-08-05T10:26:52.381Z,29.12
2022-08-05T10:28:12.821Z,29.05
2022-08-05T10:28:50.799Z,29.11
2022-08-05T10:30:41.212Z,29.02
2022-08-05T10:32:48.663Z,29.06
2022-08-05T10:32:52.974Z,29.08
2022-08-05T10:33:00.700Z,28.93
2022-08-05T10:33:52.382Z,28.95
2022-08-05T10:34:50.787Z,29.09
2022-08-05T10:35:59.195Z,29.00
2022-08-05T10:36:50.799Z,29.15
2022-08-05T10:37:50.808Z,29.26
2022-08-05T10:38:50.814Z,29.43
2022-08-05T10:39:58.977Z,29.61
2022-08-05T10:40:50.920Z,29.52
2022-08-05T10:41:50.838Z,29.65
2022-08-05T10:42:50.841Z,29.65
2022-08-05T10:43:50.846Z,29.70
2022-08-05T10:44:50.859Z,29.65
2022-08-05T10:45:50.867Z,29.55
2022-08-05T10:46:54.472Z,29.53
2022-08-05T10:48:29.808Z,29.53
2022-08-05T10:48:58.107Z,29.57
2022-08-05T10:50:20.820Z,29.57
2022-08-05T10:50:50.889Z,29.63
2022-08-05T10:51:59.985Z,29.64
2022-08-05T10:52:50.912Z,29.64
2022-08-05T10:53:50.916Z,29.67
2022-08-05T10:54:56.697Z,29.73
2022-08-05T10:56:03.810Z,29.70
2022-08-05T10:56:53.165Z,29.61
2022-08-05T10:57:51.398Z,29.60
2022-08-05T10:58:50.943Z,29.71
2022-08-05T11:00:04.363Z,29.68
2022-08-05T11:00:55.438Z,29.73
2022-08-05T11:01:54.578Z,29.71
2022-08-05T11:02:51.012Z,29.73
2022-08-05T11:03:51.053Z,29.80
2022-08-05T11:04:50.976Z,29.76
2022-08-05T11:05:50.994Z,29.78
2022-08-05T11:06:50.992Z,29.79
2022-08-05T11:08:02.693Z,29.82
2022-08-05T11:08:51.008Z,29.83
2022-08-05T11:09:51.012Z,29.87
2022-08-05T11:11:00.864Z,29.78
2022-08-05T11:11:53.600Z,29.68
2022-08-05T11:12:55.044Z,29.61
2022-08-05T11:13:57.972Z,29.57
2022-08-05T11:15:11.722Z,29.39
2022-08-05T11:16:00.100Z,29.42
2022-08-05T11:16:57.955Z,29.33
2022-08-05T11:17:57.544Z,29.27
2022-08-05T11:18:51.669Z,29.19
2022-08-05T11:20:17.565Z,29.15
2022-08-05T11:20:51.127Z,29.16
2022-08-05T11:21:51.103Z,29.21
2022-08-05T11:22:53.942Z,29.19
2022-08-05T11:24:05.225Z,29.33
2022-08-05T11:25:16.432Z,29.27
2022-08-05T11:26:05.736Z,29.41
2022-08-05T11:26:51.123Z,29.71
2022-08-05T11:28:00.710Z,30.76
2022-08-05T11:28:51.136Z,31.38
2022-08-05T11:29:51.141Z,31.81
2022-08-05T11:30:53.357Z,31.84
2022-08-05T11:31:58.660Z,31.85
2022-08-05T11:32:51.156Z,31.73
2022-08-05T11:33:51.167Z,31.72
2022-08-05T11:34:54.427Z,31.93
2022-08-05T11:36:07.780Z,32.38
2022-08-05T11:36:53.041Z,33.11
2022-08-05T11:38:28.116Z,33.47
2022-08-05T11:38:51.818Z,34.10
2022-08-05T11:39:55.239Z,34.78
2022-08-05T11:40:51.217Z,35.44
2022-08-05T11:42:00.635Z,35.55
2022-08-05T11:42:51.230Z,35.43
2022-08-05T11:44:04.575Z,35.25
2022-08-05T11:44:54.152Z,35.10
2022-08-05T11:46:23.484Z,34.97
2022-08-05T11:47:09.970Z,34.87
2022-08-05T11:47:54.573Z,34.72
2022-08-05T11:48:51.286Z,34.73
2022-08-05T11:49:51.433Z,34.54
2022-08-05T11:50:51.305Z,34.31
2022-08-05T11:51:51.310Z,34.28
2022-08-05T11:52:57.219Z,34.21
2022-08-05T11:53:51.328Z,33.98
2022-08-05T11:54:54.858Z,33.94
2022-08-05T11:55:51.353Z,33.94
2022-08-05T11:56:52.192Z,33.90
2022-08-05T11:58:08.016Z,33.79
2022-08-05T11:58:51.510Z,33.69
2022-08-05T11:59:51.380Z,33.78
2022-08-05T12:00:52.772Z,33.69
2022-08-05T12:01:51.406Z,33.65
2022-08-05T12:02:51.465Z,33.73
2022-08-05T12:03:56.064Z,33.57
2022-08-05T12:04:59.667Z,33.39
2022-08-05T12:05:51.444Z,33.51
2022-08-05T12:06:51.451Z,33.53
2022-08-05T12:08:09.256Z,33.50
2022-08-05T12:08:51.578Z,33.53
2022-08-05T12:09:53.434Z,33.37
2022-08-05T12:10:51.662Z,33.37
2022-08-05T12:11:51.492Z,33.56
2022-08-05T12:12:59.983Z,33.68
2022-08-05T12:13:51.508Z,33.87
2022-08-05T12:14:51.522Z,34.12
2022-08-05T12:15:51.534Z,34.61
2022-08-05T12:16:51.535Z,34.87
2022-08-05T12:18:03.202Z,35.14
2022-08-05T12:18:53.354Z,35.59
2022-08-05T12:20:26.027Z,35.99
2022-08-05T12:20:51.570Z,36.22
2022-08-05T12:21:51.580Z,36.43
2022-08-05T12:22:51.930Z,36.59
2022-08-05T12:23:51.608Z,37.13
2022-08-05T12:24:51.607Z,37.07
2022-08-05T12:25:51.631Z,37.22
2022-08-05T12:26:51.625Z,37.51
2022-08-05T12:27:53.263Z,37.37
2022-08-05T12:28:51.647Z,37.60
2022-08-05T12:29:53.343Z,37.36
2022-08-05T12:30:51.661Z,37.24
2022-08-05T12:31:53.460Z,37.22
2022-08-05T12:32:51.683Z,37.06
2022-08-05T12:33:51.695Z,36.78
2022-08-05T12:34:51.700Z,36.59
2022-08-05T12:35:51.749Z,36.41
2022-08-05T12:36:51.722Z,36.23
2022-08-05T12:37:53.148Z,36.16
2022-08-05T12:38:51.741Z,36.54
2022-08-05T12:39:52.001Z,36.69
2022-08-05T12:40:51.791Z,37.03
2022-08-05T12:41:58.148Z,36.90
2022-08-05T12:42:51.783Z,37.06
2022-08-05T12:43:51.799Z,37.40
2022-08-05T12:44:51.801Z,37.59
2022-08-05T12:45:51.815Z,37.47
2022-08-05T12:46:51.823Z,37.55
2022-08-05T12:48:01.638Z,37.51
2022-08-05T12:48:51.843Z,37.47
2022-08-05T12:50:03.483Z,37.50
2022-08-05T12:50:51.859Z,37.44
2022-08-05T12:52:14.235Z,37.41
2022-08-05T12:52:51.881Z,37.46
2022-08-05T12:53:55.671Z,37.57
2022-08-05T12:54:51.903Z,37.66
2022-08-05T12:55:51.914Z,37.72
2022-08-05T12:56:51.919Z,37.66
2022-08-05T12:58:49.053Z,37.44
2022-08-05T12:58:55.708Z,37.25
2022-08-05T13:01:57.003Z,37.22
2022-08-05T13:02:01.159Z,37.22
2022-08-05T13:02:03.769Z,37.13
2022-08-05T13:02:55.586Z,37.03
2022-08-05T13:03:51.990Z,36.93